createdAt,value
2023-02-12T00:01:38.844Z,8.55
2023-02-12T00:04:05.687Z,8.59
2023-02-12T00:06:32.598Z,8.59
2023-02-12T00:08:59.572Z,8.61
2023-02-12T00:11:28.805Z,8.56
2023-02-12T00:13:56.414Z,8.54
2023-02-12T00:16:25.925Z,8.59
2023-02-12T00:18:56.733Z,8.62
2023-02-12T00:21:24.322Z,8.59
2023-02-12T00:23:51.203Z,8.59
2023-02-12T00:26:20.830Z,8.62
2023-02-12T00:28:47.644Z,8.56
2023-02-12T00:31:17.620Z,8.54
2023-02-12T00:33:44.668Z,8.45
2023-02-12T00:36:15.909Z,8.48
2023-02-12T00:38:42.995Z,8.43
2023-02-12T00:41:09.980Z,8.41
2023-02-12T00:43:36.798Z,8.48
2023-02-12T00:46:05.303Z,8.46
2023-02-12T00:48:32.202Z,8.40
2023-02-12T00:50:59.065Z,8.38
2023-02-12T00:53:26.022Z,8.39
2023-02-12T00:55:53.207Z,8.30
2023-02-12T00:58:20.363Z,8.34
2023-02-12T01:00:47.208Z,8.40
2023-02-12T01:03:14.468Z,8.38
2023-02-12T01:05:41.416Z,8.42
2023-02-12T01:08:08.233Z,8.46
2023-02-12T01:10:35.253Z,8.34
2023-02-12T01:13:02.113Z,8.36
2023-02-12T01:15:29.018Z,8.29
2023-02-12T01:17:55.900Z,8.33
2023-02-12T01:20:24.902Z,8.32
2023-02-12T01:22:52.158Z,8.25
2023-02-12T01:25:20.651Z,8.27
2023-02-12T01:27:47.990Z,8.22
2023-02-12T01:30:18.038Z,8.23
2023-02-12T01:32:45.048Z,8.27
2023-02-12T01:35:12.133Z,8.31
2023-02-12T01:37:39.479Z,8.26
2023-02-12T01:40:07.525Z,8.27
2023-02-12T01:42:34.477Z,8.26
2023-02-12T01:45:13.633Z,8.28
2023-02-12T01:47:44.814Z,8.24
2023-02-12T01:50:14.337Z,8.25
2023-02-12T01:52:45.098Z,8.18
2023-02-12T01:55:12.204Z,8.17
2023-02-12T01:57:45.284Z,8.12
2023-02-12T02:00:16.501Z,8.18
2023-02-12T02:02:45.799Z,8.18
2023-02-12T02:05:16.093Z,8.05
2023-02-12T02:07:44.457Z,8.13
2023-02-12T02:10:11.455Z,8.07
2023-02-12T02:12:57.828Z,8.04
2023-02-12T02:15:27.073Z,8.09
2023-02-12T02:17:58.620Z,8.11
2023-02-12T02:21:08.467Z,8.09
2023-02-12T02:23:56.716Z,8.14
2023-02-12T02:26:41.757Z,8.03
2023-02-12T02:29:26.535Z,8.10
2023-02-12T02:32:24.128Z,8.09
2023-02-12T02:34:57.827Z,8.11
2023-02-12T02:37:29.244Z,8.09
2023-02-12T02:40:01.192Z,8.08
2023-02-12T02:42:41.657Z,8.08
2023-02-12T02:45:21.416Z,8.09
2023-02-12T02:47:53.495Z,8.02
2023-02-12T02:50:24.039Z,7.99
2023-02-12T02:52:55.339Z,7.98
2023-02-12T02:55:25.538Z,8.03
2023-02-12T02:57:56.598Z,8.03
2023-02-12T03:00:32.253Z,7.98
2023-02-12T03:03:03.304Z,8.03
2023-02-12T03:05:33.545Z,8.05
2023-02-12T03:08:14.309Z,8.07
2023-02-12T03:11:10.855Z,7.99
2023-02-12T03:13:42.800Z,8.03
2023-02-12T03:16:13.384Z,8.04
2023-02-12T03:18:50.629Z,7.99
2023-02-12T03:21:20.001Z,7.98
2023-02-12T03:23:53.430Z,7.96
2023-02-12T03:26:23.555Z,8.04
2023-02-12T03:28:50.479Z,8.03
2023-02-12T03:31:43.578Z,8.04
2023-02-12T03:34:28.686Z,7.94
2023-02-12T03:37:00.116Z,7.87
2023-02-12T03:39:33.341Z,7.88
2023-02-12T03:42:10.702Z,7.83
2023-02-12T03:44:37.458Z,7.84
2023-02-12T03:47:27.202Z,7.75
2023-02-12T03:50:11.801Z,7.81
2023-02-12T03:52:38.698Z,7.89
2023-02-12T03:55:06.087Z,7.86
2023-02-12T03:57:37.786Z,7.82
2023-02-12T04:00:08.940Z,7.82
2023-02-12T04:02:35.772Z,7.86
2023-02-12T04:05:07.467Z,7.83
2023-02-12T04:07:35.685Z,7.82
2023-02-12T04:10:02.999Z,7.76
2023-02-12T04:12:35.311Z,7.78
2023-02-12T04:15:24.396Z,7.80
2023-02-12T04:18:15.636Z,7.82
2023-02-12T04:20:51.621Z,7.81
2023-02-12T04:23:44.792Z,7.71
2023-02-12T04:26:23.315Z,7.66
2023-02-12T04:28:53.461Z,7.68
2023-02-12T04:31:41.998Z,7.65
2023-02-12T04:34:14.941Z,7.66
2023-02-12T04:36:59.913Z,7.73
2023-02-12T04:39:29.977Z,7.67
2023-02-12T04:42:00.877Z,7.71
2023-02-12T04:44:34.961Z,7.64
2023-02-12T04:47:01.842Z,7.67
2023-02-12T04:49:28.889Z,7.63
2023-02-12T04:51:55.783Z,7.68
2023-02-12T04:54:23.973Z,7.69
2023-02-12T04:56:51.255Z,7.65
2023-02-12T04:59:18.466Z,7.55
2023-02-12T05:01:45.878Z,7.63
2023-02-12T05:04:14.974Z,7.57
2023-02-12T05:06:43.122Z,7.53
2023-02-12T05:09:13.892Z,7.56
2023-02-12T05:11:40.726Z,7.51
2023-02-12T05:14:07.887Z,7.59
2023-02-12T05:16:34.910Z,7.52
2023-02-12T05:19:01.767Z,7.56
2023-02-12T05:21:28.686Z,7.49
2023-02-12T05:23:55.542Z,7.54
2023-02-12T05:26:23.280Z,7.54
2023-02-12T05:28:50.196Z,7.47
2023-02-12T05:31:21.312Z,7.48
2023-02-12T05:33:49.697Z,7.41
2023-02-12T05:36:22.123Z,7.44
2023-02-12T05:38:49.851Z,7.39
2023-02-12T05:41:19.934Z,7.29
2023-02-12T05:43:49.662Z,7.35
2023-02-12T05:46:17.994Z,7.17
2023-02-12T05:48:45.014Z,7.19
2023-02-12T05:51:16.188Z,7.28
2023-02-12T05:53:43.536Z,7.29
2023-02-12T05:56:15.870Z,7.31
2023-02-12T05:58:45.291Z,7.23
2023-02-12T06:01:24.340Z,7.25
2023-02-12T06:03:51.179Z,7.17
2023-02-12T06:06:18.205Z,7.17
2023-02-12T06:08:48.570Z,7.02
2023-02-12T06:11:16.714Z,6.96
2023-02-12T06:13:43.915Z,7.08
2023-02-12T06:16:37.123Z,7.02
2023-02-12T06:19:05.664Z,7.18
2023-02-12T06:21:33.673Z,7.09
2023-02-12T06:24:00.901Z,6.97
2023-02-12T06:26:28.017Z,7.10
2023-02-12T06:28:55.032Z,7.10
2023-02-12T06:31:27.613Z,7.16
2023-02-12T06:33:56.089Z,7.21
2023-02-12T06:36:23.369Z,7.23
2023-02-12T06:38:50.935Z,7.18
2023-02-12T06:41:17.943Z,7.17
2023-02-12T06:43:44.891Z,7.15
2023-02-12T06:46:12.372Z,7.17
2023-02-12T06:48:39.316Z,7.10
2023-02-12T06:51:14.402Z,7.20
2023-02-12T06:53:41.304Z,7.25
2023-02-12T06:56:13.409Z,7.29
2023-02-12T06:58:42.262Z,7.25
2023-02-12T07:01:18.049Z,7.26
2023-02-12T07:03:50.053Z,7.26
2023-02-12T07:06:17.413Z,7.28
2023-02-12T07:08:44.326Z,7.26
2023-02-12T07:11:11.498Z,7.26
2023-02-12T07:13:38.610Z,7.21
2023-02-12T07:16:07.264Z,7.19
2023-02-12T07:18:36.883Z,7.03
2023-02-12T07:21:05.267Z,7.14
2023-02-12T07:23:32.343Z,7.10
2023-02-12T07:26:01.179Z,7.08
2023-02-12T07:28:28.233Z,6.98
2023-02-12T07:30:55.303Z,6.88
2023-02-12T07:33:22.238Z,6.96
2023-02-12T07:35:49.988Z,6.97
2023-02-12T07:38:17.567Z,7.08
2023-02-12T07:40:45.768Z,7.09
2023-02-12T07:43:12.539Z,7.10
2023-02-12T07:45:39.377Z,7.14
2023-02-12T07:48:06.295Z,7.08
2023-02-12T07:50:33.116Z,7.17
2023-02-12T07:52:59.964Z,7.18
2023-02-12T07:55:26.841Z,7.10
2023-02-12T07:57:53.822Z,7.03
2023-02-12T08:00:21.044Z,7.08
2023-02-12T08:02:54.311Z,7.19
2023-02-12T08:05:21.255Z,7.12
2023-02-12T08:07:48.176Z,7.13
2023-02-12T08:10:15.144Z,7.11
2023-02-12T08:12:42.044Z,7.13
2023-02-12T08:15:09.278Z,7.16
2023-02-12T08:17:36.090Z,7.24
2023-02-12T08:20:03.183Z,7.27
2023-02-12T08:22:29.970Z,7.32
2023-02-12T08:24:56.771Z,7.28
2023-02-12T08:27:23.611Z,7.25
2023-02-12T08:29:50.440Z,7.28
2023-02-12T08:32:17.398Z,7.41
2023-02-12T08:34:44.282Z,7.33
2023-02-12T08:37:11.171Z,7.35
2023-02-12T08:39:38.013Z,7.52
2023-02-12T08:42:05.050Z,7.52
2023-02-12T08:44:31.952Z,7.62
2023-02-12T08:46:58.892Z,7.61
2023-02-12T08:49:28.206Z,7.56
2023-02-12T08:51:57.103Z,7.54
2023-02-12T08:54:26.647Z,7.67
2023-02-12T08:57:01.650Z,7.73
2023-02-12T08:59:28.730Z,7.82
2023-02-12T09:01:55.649Z,7.88
2023-02-12T09:04:27.390Z,7.91
2023-02-12T09:06:54.391Z,7.97
2023-02-12T09:09:21.426Z,8.00
2023-02-12T09:11:48.652Z,8.01
2023-02-12T09:14:17.184Z,8.06
2023-02-12T09:16:44.715Z,8.12
2023-02-12T09:19:14.048Z,8.18
2023-02-12T09:21:41.452Z,8.20
2023-02-12T09:24:08.819Z,8.29
2023-02-12T09:26:35.773Z,8.35
2023-02-12T09:29:03.802Z,8.44
2023-02-12T09:31:32.259Z,8.47
2023-02-12T09:34:02.270Z,8.53
2023-02-12T09:36:29.896Z,8.57
2023-02-12T09:38:57.620Z,8.61
2023-02-12T09:41:30.213Z,8.65
2023-02-12T09:44:04.658Z,8.69
2023-02-12T09:46:43.335Z,8.75
2023-02-12T09:49:14.940Z,8.78
2023-02-12T09:51:44.910Z,8.82
2023-02-12T09:54:17.669Z,8.93
2023-02-12T09:56:48.902Z,8.92
2023-02-12T09:59:30.317Z,9.00
2023-02-12T10:01:59.052Z,9.01
2023-02-12T10:04:27.806Z,9.07
2023-02-12T10:07:10.344Z,9.15
2023-02-12T10:09:41.406Z,9.22
2023-02-12T10:12:30.848Z,9.32
2023-02-12T10:15:03.674Z,9.28
2023-02-12T10:17:43.537Z,9.36
2023-02-12T10:20:34.597Z,9.32
2023-02-12T10:23:23.485Z,9.38
2023-02-12T10:25:58.852Z,9.45
2023-02-12T10:28:35.309Z,9.56
2023-02-12T10:31:15.197Z,9.59
2023-02-12T10:33:49.094Z,9.57
2023-02-12T10:36:31.564Z,9.59
2023-02-12T10:39:15.871Z,9.67
2023-02-12T10:41:50.188Z,9.72
2023-02-12T10:44:17.002Z,9.83
2023-02-12T10:46:43.995Z,9.82
2023-02-12T10:49:15.553Z,9.89
2023-02-12T10:52:24.365Z,9.95
2023-02-12T10:54:51.213Z,9.99
2023-02-12T10:57:22.381Z,10.07
2023-02-12T10:59:51.637Z,10.09
2023-02-12T11:02:27.209Z,10.10
2023-02-12T11:04:55.317Z,10.15
2023-02-12T11:07:22.923Z,10.28
2023-02-12T11:09:51.699Z,10.32
2023-02-12T11:12:21.474Z,10.32
2023-02-12T11:14:50.270Z,10.36
2023-02-12T11:17:27.403Z,10.39
2023-02-12T11:20:18.608Z,10.46
2023-02-12T11:23:02.291Z,10.52
2023-02-12T11:25:38.669Z,10.59
2023-02-12T11:28:17.589Z,10.55
2023-02-12T11:31:00.674Z,10.54
2023-02-12T11:33:30.517Z,10.61
2023-02-12T11:36:01.187Z,10.64
2023-02-12T11:38:31.817Z,10.65
2023-02-12T11:41:06.718Z,10.76
2023-02-12T11:43:37.336Z,10.74
2023-02-12T11:46:05.297Z,10.83
2023-02-12T11:48:37.957Z,10.85
2023-02-12T11:51:09.340Z,10.84
2023-02-12T11:53:40.713Z,10.91
2023-02-12T11:56:10.863Z,10.91
2023-02-12T11:58:38.525Z,10.95
2023-02-12T12:01:28.156Z,10.93
2023-02-12T12:04:06.708Z,10.98
2023-02-12T12:06:42.267Z,10.99
2023-02-12T12:09:25.352Z,11.02
2023-02-12T12:12:10.740Z,11.06
2023-02-12T12:15:13.105Z,11.10
2023-02-12T12:18:15.287Z,11.11
2023-02-12T12:20:49.956Z,11.13
2023-02-12T12:23:19.773Z,11.14
2023-02-12T12:25:49.352Z,11.16
2023-02-12T12:28:48.518Z,11.19
2023-02-12T12:31:34.990Z,11.20
2023-02-12T12:34:17.446Z,11.23
2023-02-12T12:37:12.872Z,11.25
2023-02-12T12:39:54.822Z,11.28
2023-02-12T12:42:53.220Z,11.30
2023-02-12T12:45:41.189Z,11.32
2023-02-12T12:48:33.909Z,11.35
2023-02-12T12:51:00.701Z,11.36
2023-02-12T12:53:49.200Z,11.38
2023-02-12T12:56:34.639Z,11.39
2023-02-12T12:59:43.449Z,11.41
2023-02-12T13:02:34.949Z,11.44
2023-02-12T13:05:46.644Z,11.47
2023-02-12T13:08:36.954Z,11.49
2023-02-12T13:11:35.871Z,11.50
2023-02-12T13:14:36.667Z,11.51
2023-02-12T13:17:17.390Z,11.54
2023-02-12T13:20:23.647Z,11.57
2023-02-12T13:23:00.736Z,11.60
2023-02-12T13:25:31.195Z,11.61
2023-02-12T13:28:00.054Z,11.62
2023-02-12T13:30:40.087Z,11.65
2023-02-12T13:33:34.485Z,11.66
2023-02-12T13:36:02.523Z,11.68
2023-02-12T13:38:32.994Z,11.69
2023-02-12T13:41:02.780Z,11.69
2023-02-12T13:43:53.924Z,11.70
2023-02-12T13:46:59.141Z,11.72
2023-02-12T13:49:31.701Z,11.73
2023-02-12T13:52:07.249Z,11.74
2023-02-12T13:55:01.848Z,11.74
2023-02-12T13:57:28.756Z,11.75
2023-02-12T13:59:58.413Z,11.76
2023-02-12T14:02:43.421Z,11.75
2023-02-12T14:05:26.654Z,11.75
2023-02-12T14:08:02.475Z,11.76
2023-02-12T14:10:35.952Z,11.76
2023-02-12T14:13:34.398Z,11.74
2023-02-12T14:16:21.208Z,11.76
2023-02-12T14:18:48.114Z,11.77
2023-02-12T14:21:17.292Z,11.77
2023-02-12T14:23:50.930Z,11.77
2023-02-12T14:26:22.491Z,11.77
2023-02-12T14:28:52.172Z,11.80
2023-02-12T14:31:19.228Z,11.80
2023-02-12T14:33:47.311Z,11.80
2023-02-12T14:36:39.128Z,11.77
2023-02-12T14:39:29.576Z,11.69
2023-02-12T14:42:16.467Z,11.71
2023-02-12T14:44:48.796Z,11.71
2023-02-12T14:47:35.523Z,11.70
2023-02-12T14:50:07.633Z,11.69
2023-02-12T14:52:39.990Z,11.67
2023-02-12T14:55:18.860Z,11.65
2023-02-12T14:57:45.796Z,11.66
2023-02-12T15:00:18.791Z,11.66
2023-02-12T15:03:00.073Z,11.66
2023-02-12T15:05:32.797Z,11.65
2023-02-12T15:08:07.439Z,11.65
2023-02-12T15:10:46.366Z,11.66
2023-02-12T15:13:29.690Z,11.66
2023-02-12T15:16:22.958Z,11.64
2023-02-12T15:18:55.290Z,11.63
2023-02-12T15:21:34.130Z,11.63
2023-02-12T15:24:09.047Z,11.62
2023-02-12T15:26:48.119Z,11.59
2023-02-12T15:29:24.738Z,11.58
2023-02-12T15:31:54.880Z,11.55
2023-02-12T15:34:24.824Z,11.53
2023-02-12T15:36:51.734Z,11.53
2023-02-12T15:39:21.784Z,11.52
2023-02-12T15:41:49.527Z,11.51
2023-02-12T15:44:29.095Z,11.48
2023-02-12T15:47:16.435Z,11.49
2023-02-12T15:49:44.161Z,11.48
2023-02-12T15:52:20.678Z,11.45
2023-02-12T15:54:48.108Z,11.42
2023-02-12T15:57:22.918Z,11.41
2023-02-12T15:59:54.177Z,11.39
2023-02-12T16:02:27.539Z,11.36
2023-02-12T16:04:56.380Z,11.35
2023-02-12T16:07:23.988Z,11.33
2023-02-12T16:09:54.092Z,11.31
2023-02-12T16:12:23.859Z,11.29
2023-02-12T16:14:55.966Z,11.28
2023-02-12T16:17:25.797Z,11.27
2023-02-12T16:20:09.087Z,11.24
2023-02-12T16:22:43.592Z,11.21
2023-02-12T16:25:24.521Z,11.18
2023-02-12T16:27:54.875Z,11.15
2023-02-12T16:30:28.925Z,11.12
2023-02-12T16:32:56.506Z,11.10
2023-02-12T16:35:27.104Z,11.07
2023-02-12T16:38:02.439Z,11.04
2023-02-12T16:40:32.422Z,11.03
2023-02-12T16:43:04.487Z,10.98
2023-02-12T16:45:36.380Z,10.95
2023-02-12T16:48:07.932Z,10.92
2023-02-12T16:50:43.923Z,10.91
2023-02-12T16:53:35.955Z,10.87
2023-02-12T16:56:04.434Z,10.84
2023-02-12T16:58:31.414Z,10.82
2023-02-12T17:00:59.248Z,10.79
2023-02-12T17:03:26.470Z,10.77
2023-02-12T17:05:53.500Z,10.76
2023-02-12T17:08:23.481Z,10.75
2023-02-12T17:10:50.392Z,10.73
2023-02-12T17:13:17.849Z,10.68
2023-02-12T17:15:53.292Z,10.66
2023-02-12T17:18:20.684Z,10.64
2023-02-12T17:20:54.521Z,10.62
2023-02-12T17:23:21.700Z,10.58
2023-02-12T17:25:48.666Z,10.55
2023-02-12T17:28:15.933Z,10.52
2023-02-12T17:30:42.949Z,10.49
2023-02-12T17:33:10.095Z,10.47
2023-02-12T17:35:38.912Z,10.44
2023-02-12T17:38:06.397Z,10.40
2023-02-12T17:40:36.053Z,10.37
2023-02-12T17:43:04.095Z,10.31
2023-02-12T17:45:31.175Z,10.30
2023-02-12T17:47:58.757Z,10.25
2023-02-12T17:50:26.956Z,10.24
2023-02-12T17:52:53.829Z,10.18
2023-02-12T17:55:20.713Z,10.16
2023-02-12T17:57:52.046Z,10.13
2023-02-12T18:00:19.584Z,10.07
2023-02-12T18:02:46.391Z,10.03
2023-02-12T18:05:13.835Z,10.03
2023-02-12T18:07:40.782Z,10.00
2023-02-12T18:10:10.152Z,9.96
2023-02-12T18:12:38.269Z,9.95
2023-02-12T18:15:06.052Z,9.92
2023-02-12T18:17:32.915Z,9.91
2023-02-12T18:19:59.761Z,9.89
2023-02-12T18:22:26.712Z,9.82
2023-02-12T18:24:53.634Z,9.81
2023-02-12T18:27:20.528Z,9.79
2023-02-12T18:29:47.367Z,9.74
2023-02-12T18:32:16.072Z,9.74
2023-02-12T18:34:43.852Z,9.72
2023-02-12T18:37:12.733Z,9.70
2023-02-12T18:39:39.753Z,9.66
2023-02-12T18:42:07.185Z,9.67
2023-02-12T18:44:34.083Z,9.61
2023-02-12T18:47:00.947Z,9.58
2023-02-12T18:49:28.294Z,9.55
2023-02-12T18:51:55.345Z,9.55
2023-02-12T18:54:22.259Z,9.54
2023-02-12T18:56:51.781Z,9.54
2023-02-12T18:59:19.144Z,9.54
2023-02-12T19:01:47.418Z,9.53
2023-02-12T19:04:16.281Z,9.44
2023-02-12T19:06:48.603Z,9.43
2023-02-12T19:09:16.864Z,9.45
2023-02-12T19:11:46.830Z,9.43
2023-02-12T19:14:15.341Z,9.41
2023-02-12T19:16:42.700Z,9.41
2023-02-12T19:19:09.588Z,9.37
2023-02-12T19:21:36.643Z,9.33
2023-02-12T19:24:05.379Z,9.31
2023-02-12T19:26:34.293Z,9.34
2023-02-12T19:29:02.253Z,9.31
2023-02-12T19:31:37.726Z,9.26
2023-02-12T19:34:07.989Z,9.23
2023-02-12T19:36:36.392Z,9.23
2023-02-12T19:39:04.872Z,9.23
2023-02-12T19:41:32.975Z,9.07
2023-02-12T19:44:01.716Z,9.06
2023-02-12T19:46:31.095Z,9.06
2023-02-12T19:49:00.665Z,9.08
2023-02-12T19:51:30.080Z,9.12
2023-02-12T19:54:04.282Z,9.12
2023-02-12T19:56:31.640Z,9.11
2023-02-12T19:58:59.191Z,9.06
2023-02-12T20:01:26.495Z,9.07
2023-02-12T20:03:53.894Z,9.02
2023-02-12T20:06:26.624Z,9.02
2023-02-12T20:08:53.634Z,9.00
2023-02-12T20:11:23.417Z,8.97
2023-02-12T20:13:50.823Z,8.95
2023-02-12T20:16:20.187Z,9.02
2023-02-12T20:18:49.318Z,8.99
2023-02-12T20:21:19.678Z,8.96
2023-02-12T20:23:46.633Z,8.90
2023-02-12T20:26:14.606Z,8.89
2023-02-12T20:28:43.146Z,8.85
2023-02-12T20:31:12.281Z,8.83
2023-02-12T20:33:39.511Z,8.84
2023-02-12T20:36:07.118Z,8.77
2023-02-12T20:38:34.267Z,8.71
2023-02-12T20:41:05.650Z,8.72
2023-02-12T20:43:33.382Z,8.76
2023-02-12T20:46:07.962Z,8.75
2023-02-12T20:48:34.883Z,8.67
2023-02-12T20:51:06.577Z,8.70
2023-02-12T20:53:33.697Z,8.64
2023-02-12T20:56:12.111Z,8.62
2023-02-12T20:58:41.223Z,8.64
2023-02-12T21:01:10.339Z,8.55
2023-02-12T21:03:37.634Z,8.48
2023-02-12T21:06:05.107Z,8.49
2023-02-12T21:08:32.299Z,8.45
2023-02-12T21:11:29.313Z,8.43
2023-02-12T21:14:12.447Z,8.39
2023-02-12T21:16:45.268Z,8.31
2023-02-12T21:19:14.250Z,8.39
2023-02-12T21:21:42.024Z,8.39
2023-02-12T21:24:11.199Z,8.37
2023-02-12T21:26:38.059Z,8.35
2023-02-12T21:29:05.139Z,8.36
2023-02-12T21:31:34.570Z,8.32
2023-02-12T21:34:02.761Z,8.33
2023-02-12T21:36:32.201Z,8.32
2023-02-12T21:38:59.592Z,8.27
2023-02-12T21:41:31.509Z,8.32
2023-02-12T21:44:05.897Z,8.28
2023-02-12T21:46:34.421Z,8.20
2023-02-12T21:49:01.944Z,8.24
2023-02-12T21:51:31.985Z,8.24
2023-02-12T21:54:01.773Z,8.25
2023-02-12T21:56:29.497Z,8.25
2023-02-12T21:58:58.561Z,8.24
2023-02-12T22:01:28.616Z,8.26
2023-02-12T22:03:55.675Z,8.25
2023-02-12T22:06:23.718Z,8.26
2023-02-12T22:08:51.288Z,8.29
2023-02-12T22:11:18.790Z,8.27
2023-02-12T22:13:45.958Z,8.27
2023-02-12T22:16:14.216Z,8.17
2023-02-12T22:18:42.276Z,8.18
2023-02-12T22:21:13.315Z,8.19
2023-02-12T22:23:41.388Z,8.16
2023-02-12T22:26:12.134Z,8.15
2023-02-12T22:28:45.089Z,8.19
